sensor_id;sensor_type;location;lat;lon;timestamp;pressure;altitude;pressure_sealevel;temperature
71630;BMP280;59479;51.902;8.212;2023-06-10T00:01:45;100887.66;;;22.97
71630;BMP280;59479;51.902;8.212;2023-06-10T00:04:14;100878.44;;;22.93
71630;BMP280;59479;51.902;8.212;2023-06-10T00:06:40;100885.25;;;22.94
71630;BMP280;59479;51.902;8.212;2023-06-10T00:09:06;100879.41;;;22.91
71630;BMP280;59479;51.902;8.212;2023-06-10T00:11:36;100870.41;;;22.82
71630;BMP280;59479;51.902;8.212;2023-06-10T00:14:02;100875.66;;;22.79
71630;BMP280;59479;51.902;8.212;2023-06-10T00:16:28;100881.03;;;22.74
71630;BMP280;59479;51.902;8.212;2023-06-10T00:18:54;100883.91;;;22.68
71630;BMP280;59479;51.902;8.212;2023-06-10T00:21:27;100890.75;;;22.67
71630;BMP280;59479;51.902;8.212;2023-06-10T00:23:53;100882.16;;;22.68
71630;BMP280;59479;51.902;8.212;2023-06-10T00:26:23;100876.16;;;22.69
71630;BMP280;59479;51.902;8.212;2023-06-10T00:28:49;100864.34;;;22.65
71630;BMP280;59479;51.902;8.212;2023-06-10T00:31:14;100870.59;;;22.60
71630;BMP280;59479;51.902;8.212;2023-06-10T00:33:40;100874.84;;;22.61
71630;BMP280;59479;51.902;8.212;2023-06-10T00:36:05;100881.47;;;22.65
71630;BMP280;59479;51.902;8.212;2023-06-10T00:38:30;100882.50;;;22.61
71630;BMP280;59479;51.902;8.212;2023-06-10T00:40:56;100878.63;;;22.52
71630;BMP280;59479;51.902;8.212;2023-06-10T00:43:22;100875.38;;;22.49
71630;BMP280;59479;51.902;8.212;2023-06-10T00:45:47;100889.19;;;22.45
71630;BMP280;59479;51.902;8.212;2023-06-10T00:48:13;100890.25;;;22.41
71630;BMP280;59479;51.902;8.212;2023-06-10T00:50:38;100888.50;;;22.41
71630;BMP280;59479;51.902;8.212;2023-06-10T00:53:07;100891.25;;;22.37
71630;BMP280;59479;51.902;8.212;2023-06-10T00:55:32;100886.78;;;22.42
71630;BMP280;59479;51.902;8.212;2023-06-10T00:57:58;100887.06;;;22.36
71630;BMP280;59479;51.902;8.212;2023-06-10T01:00:25;100887.56;;;22.44
71630;BMP280;59479;51.902;8.212;2023-06-10T01:02:51;100890.25;;;22.41
71630;BMP280;59479;51.902;8.212;2023-06-10T01:05:20;100884.50;;;22.36
71630;BMP280;59479;51.902;8.212;2023-06-10T01:10:38;100885.66;;;22.29
71630;BMP280;59479;51.902;8.212;2023-06-10T01:13:07;100888.22;;;22.29
71630;BMP280;59479;51.902;8.212;2023-06-10T01:15:37;100890.97;;;22.25
71630;BMP280;59479;51.902;8.212;2023-06-10T01:18:07;100883.22;;;22.26
71630;BMP280;59479;51.902;8.212;2023-06-10T01:20:41;100885.16;;;22.21
71630;BMP280;59479;51.902;8.212;2023-06-10T01:23:07;100893.78;;;22.19
71630;BMP280;59479;51.902;8.212;2023-06-10T01:25:37;100888.72;;;22.17
71630;BMP280;59479;51.902;8.212;2023-06-10T01:28:27;100890.59;;;22.14
71630;BMP280;59479;51.902;8.212;2023-06-10T01:33:35;100889.09;;;22.08
71630;BMP280;59479;51.902;8.212;2023-06-10T01:36:02;100901.97;;;22.07
71630;BMP280;59479;51.902;8.212;2023-06-10T01:38:31;100892.56;;;22.07
71630;BMP280;59479;51.902;8.212;2023-06-10T01:40:57;100894.44;;;22.04
71630;BMP280;59479;51.902;8.212;2023-06-10T01:43:23;100895.50;;;21.98
71630;BMP280;59479;51.902;8.212;2023-06-10T01:45:48;100895.56;;;21.97
71630;BMP280;59479;51.902;8.212;2023-06-10T01:48:14;100895.66;;;21.95
71630;BMP280;59479;51.902;8.212;2023-06-10T01:50:39;100900.91;;;21.92
71630;BMP280;59479;51.902;8.212;2023-06-10T01:53:04;100900.31;;;21.86
71630;BMP280;59479;51.902;8.212;2023-06-10T01:55:33;100905.38;;;21.88
71630;BMP280;59479;51.902;8.212;2023-06-10T01:57:58;100902.88;;;21.86
71630;BMP280;59479;51.902;8.212;2023-06-10T02:00:23;100911.75;;;21.78
71630;BMP280;59479;51.902;8.212;2023-06-10T02:02:49;100895.75;;;21.73
71630;BMP280;59479;51.902;8.212;2023-06-10T02:05:15;100901.13;;;21.67
71630;BMP280;59479;51.902;8.212;2023-06-10T02:07:40;100904.69;;;21.63
71630;BMP280;59479;51.902;8.212;2023-06-10T02:10:06;100899.81;;;21.57
71630;BMP280;59479;51.902;8.212;2023-06-10T02:12:32;100905.91;;;21.54
71630;BMP280;59479;51.902;8.212;2023-06-10T02:14:57;100908.56;;;21.51
71630;BMP280;59479;51.902;8.212;2023-06-10T02:17:22;100918.03;;;21.50
71630;BMP280;59479;51.902;8.212;2023-06-10T02:19:48;100916.56;;;21.44
71630;BMP280;59479;51.902;8.212;2023-06-10T02:22:20;100921.00;;;21.39
71630;BMP280;59479;51.902;8.212;2023-06-10T02:24:45;100920.34;;;21.34
71630;BMP280;59479;51.902;8.212;2023-06-10T02:27:11;100921.66;;;21.23
71630;BMP280;59479;51.902;8.212;2023-06-10T02:29:36;100928.34;;;21.25
71630;BMP280;59479;51.902;8.212;2023-06-10T02:32:02;100934.31;;;21.26
71630;BMP280;59479;51.902;8.212;2023-06-10T02:34:28;100930.91;;;21.25
71630;BMP280;59479;51.902;8.212;2023-06-10T02:36:53;100929.22;;;21.26
71630;BMP280;59479;51.902;8.212;2023-06-10T02:39:19;100924.25;;;21.21
71630;BMP280;59479;51.902;8.212;2023-06-10T02:41:44;100926.94;;;21.18
71630;BMP280;59479;51.902;8.212;2023-06-10T02:44:10;100932.03;;;21.18
71630;BMP280;59479;51.902;8.212;2023-06-10T02:46:35;100928.09;;;21.10
71630;BMP280;59479;51.902;8.212;2023-06-10T02:49:00;100930.72;;;21.08
71630;BMP280;59479;51.902;8.212;2023-06-10T02:51:26;100926.47;;;21.09
71630;BMP280;59479;51.902;8.212;2023-06-10T02:53:52;100924.72;;;21.09
71630;BMP280;59479;51.902;8.212;2023-06-10T02:56:18;100925.50;;;21.11
71630;BMP280;59479;51.902;8.212;2023-06-10T02:58:43;100924.00;;;21.06
71630;BMP280;59479;51.902;8.212;2023-06-10T03:01:09;100934.19;;;21.08
71630;BMP280;59479;51.902;8.212;2023-06-10T03:03:35;100940.28;;;21.04
71630;BMP280;59479;51.902;8.212;2023-06-10T03:06:02;100932.97;;;20.95
71630;BMP280;59479;51.902;8.212;2023-06-10T03:08:28;100934.81;;;20.91
71630;BMP280;59479;51.902;8.212;2023-06-10T03:10:53;100942.47;;;20.91
71630;BMP280;59479;51.902;8.212;2023-06-10T03:13:19;100935.63;;;20.92
71630;BMP280;59479;51.902;8.212;2023-06-10T03:15:44;100941.25;;;20.78
71630;BMP280;59479;51.902;8.212;2023-06-10T03:18:11;100942.06;;;20.79
71630;BMP280;59479;51.902;8.212;2023-06-10T03:20:36;100932.00;;;20.76
71630;BMP280;59479;51.902;8.212;2023-06-10T03:23:03;100942.06;;;20.79
71630;BMP280;59479;51.902;8.212;2023-06-10T03:25:30;100940.41;;;20.78
71630;BMP280;59479;51.902;8.212;2023-06-10T03:27:55;100943.84;;;20.77
71630;BMP280;59479;51.902;8.212;2023-06-10T03:30:21;100939.84;;;20.70
71630;BMP280;59479;51.902;8.212;2023-06-10T03:32:46;100940.16;;;20.61
71630;BMP280;59479;51.902;8.212;2023-06-10T03:35:12;100940.94;;;20.63
71630;BMP280;59479;51.902;8.212;2023-06-10T03:37:37;100948.59;;;20.65
71630;BMP280;59479;51.902;8.212;2023-06-10T03:40:02;100949.47;;;20.62
71630;BMP280;59479;51.902;8.212;2023-06-10T03:42:28;100953.88;;;20.59
71630;BMP280;59479;51.902;8.212;2023-06-10T03:44:54;100953.88;;;20.59
71630;BMP280;59479;51.902;8.212;2023-06-10T03:47:20;100954.72;;;20.59
71630;BMP280;59479;51.902;8.212;2023-06-10T03:49:46;100947.06;;;20.59
71630;BMP280;59479;51.902;8.212;2023-06-10T03:52:11;100947.16;;;20.56
71630;BMP280;59479;51.902;8.212;2023-06-10T03:54:36;100942.97;;;20.54
71630;BMP280;59479;51.902;8.212;2023-06-10T03:57:02;100937.81;;;20.55
71630;BMP280;59479;51.902;8.212;2023-06-10T03:59:28;100943.03;;;20.52
71630;BMP280;59479;51.902;8.212;2023-06-10T04:01:54;100944.81;;;20.50
71630;BMP280;59479;51.902;8.212;2023-06-10T04:04:19;100941.31;;;20.53
71630;BMP280;59479;51.902;8.212;2023-06-10T04:06:45;100927.69;;;20.52
71630;BMP280;59479;51.902;8.212;2023-06-10T04:09:11;100934.81;;;20.44
71630;BMP280;59479;51.902;8.212;2023-06-10T04:11:36;100924.09;;;20.35
71630;BMP280;59479;51.902;8.212;2023-06-10T04:14:02;100930.97;;;20.33
71630;BMP280;59479;51.902;8.212;2023-06-10T04:16:27;100935.25;;;20.32
71630;BMP280;59479;51.902;8.212;2023-06-10T04:18:53;100939.34;;;20.36
71630;BMP280;59479;51.902;8.212;2023-06-10T04:21:18;100935.97;;;20.36
71630;BMP280;59479;51.902;8.212;2023-06-10T04:23:43;100947.50;;;20.23
71630;BMP280;59479;51.902;8.212;2023-06-10T04:26:09;100944.06;;;20.24
71630;BMP280;59479;51.902;8.212;2023-06-10T04:28:36;100950.91;;;20.22
71630;BMP280;59479;51.902;8.212;2023-06-10T04:31:01;100943.44;;;20.18
71630;BMP280;59479;51.902;8.212;2023-06-10T04:33:29;100945.13;;;20.17
71630;BMP280;59479;51.902;8.212;2023-06-10T04:35:55;100948.25;;;20.25
71630;BMP280;59479;51.902;8.212;2023-06-10T04:38:20;100949.25;;;20.21
71630;BMP280;59479;51.902;8.212;2023-06-10T04:40:46;100946.50;;;20.27
71630;BMP280;59479;51.902;8.212;2023-06-10T04:43:11;100953.91;;;20.34
71630;BMP280;59479;51.902;8.212;2023-06-10T04:45:38;100955.69;;;20.32
71630;BMP280;59479;51.902;8.212;2023-06-10T04:48:03;100956.56;;;20.31
71630;BMP280;59479;51.902;8.212;2023-06-10T04:50:28;100958.06;;;20.37
71630;BMP280;59479;51.902;8.212;2023-06-10T04:52:54;100967.13;;;20.45
71630;BMP280;59479;51.902;8.212;2023-06-10T04:55:22;100965.22;;;20.50
71630;BMP280;59479;51.902;8.212;2023-06-10T04:57:47;100957.75;;;20.46
71630;BMP280;59479;51.902;8.212;2023-06-10T05:00:13;100953.38;;;20.49
71630;BMP280;59479;51.902;8.212;2023-06-10T05:02:39;100948.13;;;20.52
71630;BMP280;59479;51.902;8.212;2023-06-10T05:05:05;100957.13;;;20.62
71630;BMP280;59479;51.902;8.212;2023-06-10T05:07:31;100959.81;;;20.59
71630;BMP280;59479;51.902;8.212;2023-06-10T05:09:56;100957.19;;;20.61
71630;BMP280;59479;51.902;8.212;2023-06-10T05:12:21;100963.56;;;20.73
71630;BMP280;59479;51.902;8.212;2023-06-10T05:14:47;100963.38;;;20.79
71630;BMP280;59479;51.902;8.212;2023-06-10T05:17:12;100964.09;;;20.83
71630;BMP280;59479;51.902;8.212;2023-06-10T05:19:38;100974.25;;;20.84
71630;BMP280;59479;51.902;8.212;2023-06-10T05:22:03;100963.69;;;20.93
71630;BMP280;59479;51.902;8.212;2023-06-10T05:24:29;100966.03;;;20.99
71630;BMP280;59479;51.902;8.212;2023-06-10T05:26:54;100965.31;;;20.96
71630;BMP280;59479;51.902;8.212;2023-06-10T05:29:20;100968.22;;;21.08
71630;BMP280;59479;51.902;8.212;2023-06-10T05:31:45;100974.13;;;21.10
71630;BMP280;59479;51.902;8.212;2023-06-10T05:34:10;100973.19;;;21.12
71630;BMP280;59479;51.902;8.212;2023-06-10T05:36:36;100972.31;;;21.12
71630;BMP280;59479;51.902;8.212;2023-06-10T05:39:02;100979.84;;;21.16
71630;BMP280;59479;51.902;8.212;2023-06-10T05:41:28;100972.72;;;21.24
71630;BMP280;59479;51.902;8.212;2023-06-10T05:43:53;100978.59;;;21.26
71630;BMP280;59479;51.902;8.212;2023-06-10T05:46:19;100966.38;;;21.34
71630;BMP280;59479;51.902;8.212;2023-06-10T05:48:45;100963.66;;;21.37
71630;BMP280;59479;51.902;8.212;2023-06-10T05:51:10;100972.13;;;21.39
71630;BMP280;59479;51.902;8.212;2023-06-10T05:53:35;100960.13;;;21.41
71630;BMP280;59479;51.902;8.212;2023-06-10T05:56:01;100957.53;;;21.43
71630;BMP280;59479;51.902;8.212;2023-06-10T05:58:26;100963.66;;;21.37
71630;BMP280;59479;51.902;8.212;2023-06-10T06:00:51;100957.22;;;21.50
71630;BMP280;59479;51.902;8.212;2023-06-10T06:03:17;100966.38;;;21.55
71630;BMP280;59479;51.902;8.212;2023-06-10T06:05:42;100962.00;;;21.59
71630;BMP280;59479;51.902;8.212;2023-06-10T06:08:08;100966.38;;;21.55
71630;BMP280;59479;51.902;8.212;2023-06-10T06:10:33;100964.31;;;21.65
71630;BMP280;59479;51.902;8.212;2023-06-10T06:13:00;100963.16;;;21.72
71630;BMP280;59479;51.902;8.212;2023-06-10T06:15:25;100963.81;;;21.77
71630;BMP280;59479;51.902;8.212;2023-06-10T06:17:51;100973.94;;;21.80
71630;BMP280;59479;51.902;8.212;2023-06-10T06:20:20;100961.84;;;21.83
71630;BMP280;59479;51.902;8.212;2023-06-10T06:22:45;100964.88;;;21.92
71630;BMP280;59479;51.902;8.212;2023-06-10T06:25:11;100972.81;;;22.06
71630;BMP280;59479;51.902;8.212;2023-06-10T06:27:36;100965.00;;;22.09
71630;BMP280;59479;51.902;8.212;2023-06-10T06:30:02;100965.53;;;22.17
71630;BMP280;59479;51.902;8.212;2023-06-10T06:32:27;100968.78;;;22.22
71630;BMP280;59479;51.902;8.212;2023-06-10T06:34:53;100969.13;;;22.33
71630;BMP280;59479;51.902;8.212;2023-06-10T06:37:23;100968.88;;;22.39
71630;BMP280;59479;51.902;8.212;2023-06-10T06:39:51;100962.25;;;22.53
71630;BMP280;59479;51.902;8.212;2023-06-10T06:42:17;100957.91;;;22.55
71630;BMP280;59479;51.902;8.212;2023-06-10T06:44:43;100958.22;;;22.68
71630;BMP280;59479;51.902;8.212;2023-06-10T06:47:08;100959.53;;;22.76
71630;BMP280;59479;51.902;8.212;2023-06-10T06:49:33;100957.41;;;22.85
71630;BMP280;59479;51.902;8.212;2023-06-10T06:51:59;100959.50;;;22.96
71630;BMP280;59479;51.902;8.212;2023-06-10T06:54:24;100963.78;;;23.14
71630;BMP280;59479;51.902;8.212;2023-06-10T06:56:50;100960.81;;;23.22
71630;BMP280;59479;51.902;8.212;2023-06-10T06:59:15;100957.00;;;23.31
71630;BMP280;59479;51.902;8.212;2023-06-10T07:01:42;100952.28;;;23.40
71630;BMP280;59479;51.902;8.212;2023-06-10T07:04:07;100949.19;;;23.51
71630;BMP280;59479;51.902;8.212;2023-06-10T07:06:33;100958.59;;;23.50
71630;BMP280;59479;51.902;8.212;2023-06-10T07:08:58;100952.03;;;23.63
71630;BMP280;59479;51.902;8.212;2023-06-10T07:11:23;100937.63;;;23.77
71630;BMP280;59479;51.902;8.212;2023-06-10T07:13:49;100948.88;;;23.92
71630;BMP280;59479;51.902;8.212;2023-06-10T07:16:14;100952.81;;;23.99
71630;BMP280;59479;51.902;8.212;2023-06-10T07:18:40;100954.19;;;24.06
71630;BMP280;59479;51.902;8.212;2023-06-10T07:21:05;100950.25;;;24.15
71630;BMP280;59479;51.902;8.212;2023-06-10T07:23:30;100951.34;;;24.27
71630;BMP280;59479;51.902;8.212;2023-06-10T07:25:56;100944.78;;;24.38
71630;BMP280;59479;51.902;8.212;2023-06-10T07:28:21;100952.13;;;24.46
71630;BMP280;59479;51.902;8.212;2023-06-10T07:30:46;100957.22;;;24.62
71630;BMP280;59479;51.902;8.212;2023-06-10T07:33:12;100954.09;;;24.73
71630;BMP280;59479;51.902;8.212;2023-06-10T07:35:37;100956.66;;;24.88
71630;BMP280;59479;51.902;8.212;2023-06-10T07:38:02;100955.06;;;25.02
71630;BMP280;59479;51.902;8.212;2023-06-10T07:40:27;100953.81;;;25.09
71630;BMP280;59479;51.902;8.212;2023-06-10T07:42:53;100955.25;;;25.30
71630;BMP280;59479;51.902;8.212;2023-06-10T07:45:18;100959.28;;;25.34
71630;BMP280;59479;51.902;8.212;2023-06-10T07:47:44;100957.97;;;25.42
71630;BMP280;59479;51.902;8.212;2023-06-10T07:50:10;100969.25;;;25.55
71630;BMP280;59479;51.902;8.212;2023-06-10T07:52:35;100963.75;;;25.61
71630;BMP280;59479;51.902;8.212;2023-06-10T07:55:00;100960.41;;;25.75
71630;BMP280;59479;51.902;8.212;2023-06-10T07:57:26;100958.91;;;25.86
71630;BMP280;59479;51.902;8.212;2023-06-10T07:59:51;100959.69;;;26.02
71630;BMP280;59479;51.902;8.212;2023-06-10T08:02:17;100967.03;;;26.08
71630;BMP280;59479;51.902;8.212;2023-06-10T08:04:42;100960.91;;;26.10
71630;BMP280;59479;51.902;8.212;2023-06-10T08:07:07;100956.53;;;26.26
71630;BMP280;59479;51.902;8.212;2023-06-10T08:09:33;100961.69;;;26.40
71630;BMP280;59479;51.902;8.212;2023-06-10T08:11:58;100962.91;;;26.48
71630;BMP280;59479;51.902;8.212;2023-06-10T08:14:23;100966.59;;;26.58
71630;BMP280;59479;51.902;8.212;2023-06-10T08:16:49;100962.75;;;26.65
71630;BMP280;59479;51.902;8.212;2023-06-10T08:19:14;100958.38;;;26.79
71630;BMP280;59479;51.902;8.212;2023-06-10T08:21:39;100973.69;;;26.96
71630;BMP280;59479;51.902;8.212;2023-06-10T08:24:09;100964.38;;;27.07
71630;BMP280;59479;51.902;8.212;2023-06-10T08:26:35;100961.44;;;27.13
71630;BMP280;59479;51.902;8.212;2023-06-10T08:29:00;100971.34;;;27.19
71630;BMP280;59479;51.902;8.212;2023-06-10T08:31:25;100965.81;;;27.25
71630;BMP280;59479;51.902;8.212;2023-06-10T08:33:51;100966.16;;;27.33
71630;BMP280;59479;51.902;8.212;2023-06-10T08:36:16;100960.06;;;27.34
71630;BMP280;59479;51.902;8.212;2023-06-10T08:38:41;100955.63;;;27.50
71630;BMP280;59479;51.902;8.212;2023-06-10T08:41:09;100964.09;;;27.52
71630;BMP280;59479;51.902;8.212;2023-06-10T08:43:42;100962.41;;;27.65
71630;BMP280;59479;51.902;8.212;2023-06-10T08:46:09;100956.44;;;27.77
71630;BMP280;59479;51.902;8.212;2023-06-10T08:48:39;100944.97;;;27.81
71630;BMP280;59479;51.902;8.212;2023-06-10T08:51:06;100951.81;;;27.94
71630;BMP280;59479;51.902;8.212;2023-06-10T08:53:33;100950.56;;;27.87
71630;BMP280;59479;51.902;8.212;2023-06-10T08:56:02;100956.44;;;28.01
71630;BMP280;59479;51.902;8.212;2023-06-10T08:58:29;100954.22;;;28.09
71630;BMP280;59479;51.902;8.212;2023-06-10T09:00:55;100958.91;;;28.17
71630;BMP280;59479;51.902;8.212;2023-06-10T09:03:21;100948.66;;;28.15
71630;BMP280;59479;51.902;8.212;2023-06-10T09:05:46;100949.81;;;28.24
71630;BMP280;59479;51.902;8.212;2023-06-10T09:08:14;100959.94;;;28.27
71630;BMP280;59479;51.902;8.212;2023-06-10T09:10:40;100956.31;;;28.29
71630;BMP280;59479;51.902;8.212;2023-06-10T09:13:06;100945.84;;;28.43
71630;BMP280;59479;51.902;8.212;2023-06-10T09:15:31;100952.06;;;28.53
71630;BMP280;59479;51.902;8.212;2023-06-10T09:17:56;100943.59;;;28.51
71630;BMP280;59479;51.902;8.212;2023-06-10T09:20:22;100951.25;;;28.65
71630;BMP280;59479;51.902;8.212;2023-06-10T09:22:48;100942.56;;;28.66
71630;BMP280;59479;51.902;8.212;2023-06-10T09:25:14;100947.94;;;28.75
71630;BMP280;59479;51.902;8.212;2023-06-10T09:27:50;100950.59;;;28.86
71630;BMP280;59479;51.902;8.212;2023-06-10T09:30:29;100948.63;;;28.89
71630;BMP280;59479;51.902;8.212;2023-06-10T09:32:57;100950.78;;;28.95
71630;BMP280;59479;51.902;8.212;2023-06-10T09:35:26;100958.25;;;29.00
71630;BMP280;59479;51.902;8.212;2023-06-10T09:37:53;100949.22;;;29.05
71630;BMP280;59479;51.902;8.212;2023-06-10T09:40:19;100951.59;;;29.08
71630;BMP280;59479;51.902;8.212;2023-06-10T09:42:45;100958.97;;;29.02
71630;BMP280;59479;51.902;8.212;2023-06-10T09:45:10;100950.53;;;29.23
71630;BMP280;59479;51.902;8.212;2023-06-10T09:47:35;100944.19;;;29.27
71630;BMP280;59479;51.902;8.212;2023-06-10T09:50:01;100954.22;;;29.31
71630;BMP280;59479;51.902;8.212;2023-06-10T09:52:27;100945.13;;;29.26
71630;BMP280;59479;51.902;8.212;2023-06-10T09:54:55;100948.00;;;29.34
71630;BMP280;59479;51.902;8.212;2023-06-10T09:57:23;100947.31;;;29.43
71630;BMP280;59479;51.902;8.212;2023-06-10T09:59:53;100944.50;;;29.46
71630;BMP280;59479;51.902;8.212;2023-06-10T10:02:19;100951.78;;;29.41
71630;BMP280;59479;51.902;8.212;2023-06-10T10:04:44;100948.56;;;29.50
71630;BMP280;59479;51.902;8.212;2023-06-10T10:07:10;100941.53;;;29.63
71630;BMP280;59479;51.902;8.212;2023-06-10T10:09:40;100956.97;;;29.64
71630;BMP280;59479;51.902;8.212;2023-06-10T10:12:13;100943.78;;;29.67
71630;BMP280;59479;51.902;8.212;2023-06-10T10:14:43;100946.28;;;29.68
71630;BMP280;59479;51.902;8.212;2023-06-10T10:17:11;100949.75;;;29.80
71630;BMP280;59479;51.902;8.212;2023-06-10T10:19:53;100939.63;;;29.77
71630;BMP280;59479;51.902;8.212;2023-06-10T10:22:26;100936.13;;;29.89
71630;BMP280;59479;51.902;8.212;2023-06-10T10:24:56;100941.44;;;29.98
71630;BMP280;59479;51.902;8.212;2023-06-10T10:27:33;100945.47;;;30.02
71630;BMP280;59479;51.902;8.212;2023-06-10T10:30:01;100939.69;;;30.09
71630;BMP280;59479;51.902;8.212;2023-06-10T10:32:35;100940.09;;;30.27
71630;BMP280;59479;51.902;8.212;2023-06-10T10:35:08;100940.41;;;30.22
71630;BMP280;59479;51.902;8.212;2023-06-10T10:37:35;100940.66;;;30.19
71630;BMP280;59479;51.902;8.212;2023-06-10T10:40:01;100933.59;;;30.21
71630;BMP280;59479;51.902;8.212;2023-06-10T10:42:28;100935.28;;;30.44
71630;BMP280;59479;51.902;8.212;2023-06-10T10:44:54;100939.63;;;30.54
71630;BMP280;59479;51.902;8.212;2023-06-10T10:47:26;100929.88;;;30.36
71630;BMP280;59479;51.902;8.212;2023-06-10T10:49:52;100935.19;;;30.35
71630;BMP280;59479;51.902;8.212;2023-06-10T10:52:24;100935.41;;;30.43
71630;BMP280;59479;51.902;8.212;2023-06-10T10:54:53;100932.81;;;30.43
71630;BMP280;59479;51.902;8.212;2023-06-10T10:57:20;100931.41;;;30.50
71630;BMP280;59479;51.902;8.212;2023-06-10T10:59:51;100934.00;;;30.60
71630;BMP280;59479;51.902;8.212;2023-06-10T11:02:18;100935.38;;;30.64
71630;BMP280;59479;51.902;8.212;2023-06-10T11:04:46;100931.25;;;30.73
71630;BMP280;59479;51.902;8.212;2023-06-10T11:07:11;100938.25;;;30.83
71630;BMP280;59479;51.902;8.212;2023-06-10T11:10:00;100926.78;;;30.96
71630;BMP280;59479;51.902;8.212;2023-06-10T11:12:42;100920.97;;;31.04
71630;BMP280;59479;51.902;8.212;2023-06-10T11:15:08;100914.75;;;31.06
71630;BMP280;59479;51.902;8.212;2023-06-10T11:17:33;100912.59;;;31.11
71630;BMP280;59479;51.902;8.212;2023-06-10T11:19:59;100907.28;;;31.13
71630;BMP280;59479;51.902;8.212;2023-06-10T11:22:25;100915.59;;;31.27
71630;BMP280;59479;51.902;8.212;2023-06-10T11:24:50;100916.06;;;31.32
71630;BMP280;59479;51.902;8.212;2023-06-10T11:27:19;100912.91;;;31.18
71630;BMP280;59479;51.902;8.212;2023-06-10T11:32:34;100916.47;;;31.17
71630;BMP280;59479;51.902;8.212;2023-06-10T11:35:04;100917.50;;;31.25
71630;BMP280;59479;51.902;8.212;2023-06-10T11:37:30;100915.72;;;31.26
71630;BMP280;59479;51.902;8.212;2023-06-10T11:39:56;100908.00;;;31.46
71630;BMP280;59479;51.902;8.212;2023-06-10T11:42:22;100906.75;;;31.61
71630;BMP280;59479;51.902;8.212;2023-06-10T11:44:51;100904.88;;;31.63
71630;BMP280;59479;51.902;8.212;2023-06-10T11:47:17;100902.41;;;31.61
71630;BMP280;59479;51.902;8.212;2023-06-10T11:49:43;100908.09;;;31.55
71630;BMP280;59479;51.902;8.212;2023-06-10T11:52:09;100897.25;;;31.71
71630;BMP280;59479;51.902;8.212;2023-06-10T11:54:34;100903.97;;;31.73
71630;BMP280;59479;51.902;8.212;2023-06-10T11:57:00;100903.97;;;31.73
71630;BMP280;59479;51.902;8.212;2023-06-10T11:59:32;100897.50;;;31.68
71630;BMP280;59479;51.902;8.212;2023-06-10T12:01:58;100892.06;;;31.71
71630;BMP280;59479;51.902;8.212;2023-06-10T12:04:23;100889.91;;;31.96
71630;BMP280;59479;51.902;8.212;2023-06-10T12:06:53;100898.00;;;31.93
71630;BMP280;59479;51.902;8.212;2023-06-10T12:09:27;100896.97;;;32.05
71630;BMP280;59479;51.902;8.212;2023-06-10T12:14:58;100891.38;;;31.89
71630;BMP280;59479;51.902;8.212;2023-06-10T12:17:35;100881.66;;;32.11
71630;BMP280;59479;51.902;8.212;2023-06-10T12:20:04;100889.31;;;32.13
71630;BMP280;59479;51.902;8.212;2023-06-10T12:22:56;100885.56;;;32.26
71630;BMP280;59479;51.902;8.212;2023-06-10T12:25:26;100894.19;;;32.26
71630;BMP280;59479;51.902;8.212;2023-06-10T12:27:53;100892.41;;;32.27
71630;BMP280;59479;51.902;8.212;2023-06-10T12:30:23;100898.84;;;32.32
71630;BMP280;59479;51.902;8.212;2023-06-10T12:32:50;100886.25;;;32.28
71630;BMP280;59479;51.902;8.212;2023-06-10T12:35:18;100892.47;;;32.36
71630;BMP280;59479;51.902;8.212;2023-06-10T12:38:05;100886.13;;;32.29
71630;BMP280;59479;51.902;8.212;2023-06-10T12:40:37;100885.81;;;32.43
71630;BMP280;59479;51.902;8.212;2023-06-10T12:43:03;100887.84;;;32.49
71630;BMP280;59479;51.902;8.212;2023-06-10T12:45:29;100887.63;;;32.32
71630;BMP280;59479;51.902;8.212;2023-06-10T12:48:22;100884.16;;;32.42
71630;BMP280;59479;51.902;8.212;2023-06-10T12:50:55;100878.47;;;32.37
71630;BMP280;59479;51.902;8.212;2023-06-10T12:53:22;100876.72;;;32.38
71630;BMP280;59479;51.902;8.212;2023-06-10T12:55:54;100886.06;;;32.40
71630;BMP280;59479;51.902;8.212;2023-06-10T12:58:20;100881.84;;;32.39
71630;BMP280;59479;51.902;8.212;2023-06-10T13:00:47;100886.19;;;32.39
71630;BMP280;59479;51.902;8.212;2023-06-10T13:03:14;100880.13;;;32.38
71630;BMP280;59479;51.902;8.212;2023-06-10T13:05:39;100887.75;;;32.30
71630;BMP280;59479;51.902;8.212;2023-06-10T13:08:06;100882.66;;;32.49
71630;BMP280;59479;51.902;8.212;2023-06-10T13:10:32;100881.72;;;32.50
71630;BMP280;59479;51.902;8.212;2023-06-10T13:12:58;100885.69;;;32.54
71630;BMP280;59479;51.902;8.212;2023-06-10T13:15:24;100884.75;;;32.55
71630;BMP280;59479;51.902;8.212;2023-06-10T13:17:51;100876.00;;;32.56
71630;BMP280;59479;51.902;8.212;2023-06-10T13:20:17;100872.84;;;32.62
71630;BMP280;59479;51.902;8.212;2023-06-10T13:22:42;100869.50;;;32.51
71630;BMP280;59479;51.902;8.212;2023-06-10T13:25:08;100867.97;;;32.78
71630;BMP280;59479;51.902;8.212;2023-06-10T13:27:34;100867.06;;;32.59
71630;BMP280;59479;51.902;8.212;2023-06-10T13:30:00;100870.06;;;32.45
71630;BMP280;59479;51.902;8.212;2023-06-10T13:32:25;100867.59;;;32.43
71630;BMP280;59479;51.902;8.212;2023-06-10T13:34:51;100860.25;;;32.58
71630;BMP280;59479;51.902;8.212;2023-06-10T13:37:16;100845.41;;;32.39
71630;BMP280;59479;51.902;8.212;2023-06-10T13:39:45;100851.34;;;32.60
71630;BMP280;59479;51.902;8.212;2023-06-10T13:42:13;100848.72;;;32.60
71630;BMP280;59479;51.902;8.212;2023-06-10T13:44:39;100845.72;;;32.55
71630;BMP280;59479;51.902;8.212;2023-06-10T13:47:04;100843.81;;;32.66
71630;BMP280;59479;51.902;8.212;2023-06-10T13:49:30;100845.59;;;32.75
71630;BMP280;59479;51.902;8.212;2023-06-10T13:51:56;100835.09;;;32.86
71630;BMP280;59479;51.902;8.212;2023-06-10T13:54:21;100839.84;;;32.72
71630;BMP280;59479;51.902;8.212;2023-06-10T13:56:47;100839.69;;;32.64
71630;BMP280;59479;51.902;8.212;2023-06-10T13:59:12;100836.81;;;32.67
71630;BMP280;59479;51.902;8.212;2023-06-10T14:01:38;100832.47;;;32.86
71630;BMP280;59479;51.902;8.212;2023-06-10T14:04:04;100835.88;;;32.77
71630;BMP280;59479;51.902;8.212;2023-06-10T14:06:30;100831.91;;;32.73